Time;durP1;ratioP1;P1;durP2;ratioP2;P2;SDS_P1;SDS_P2;PMS_P1;PMS_P2;Temp;Humidity;BMP_temperature;BMP_pressure;BME280_temperature;BME280_humidity;BME280_pressure;Samples;Min_cycle;Max_cycle;Signal;HPM_P1;HPM_P2
2021/07/06 00:00:01;;;;;;;2.70;1.80;;;;;;;;;;5023741;28;20200;-85
2021/07/06 00:02:27;;;;;;;5.90;2.07;;;;;;;;;;5010681;28;20180;-86
2021/07/06 00:04:59;;;;;;;2.10;1.60;;;;;;;;;;5028774;28;20448;-87
2021/07/06 00:07:26;;;;;;;2.35;1.50;;;;;;;;;;5012797;28;20467;-84
2021/07/06 00:09:52;;;;;;;4.78;1.60;;;;;;;;;;5013058;28;20180;-85
2021/07/06 00:12:19;;;;;;;1.60;1.50;;;;;;;;;;5023711;28;20255;-86
2021/07/06 00:14:45;;;;;;;3.20;1.90;;;;;;;;;;5008387;28;20184;-84
2021/07/06 00:17:11;;;;;;;1.75;1.30;;;;;;;;;;5028321;28;20248;-85
2021/07/06 00:19:37;;;;;;;2.65;1.70;;;;;;;;;;5027958;28;20202;-85
2021/07/06 00:22:04;;;;;;;4.05;1.65;;;;;;;;;;5027236;28;20215;-86
2021/07/06 00:24:30;;;;;;;2.22;1.58;;;;;;;;;;5025651;28;20188;-85
2021/07/06 00:26:56;;;;;;;1.45;1.35;;;;;;;;;;5023576;28;20216;-85
2021/07/06 00:29:23;;;;;;;3.50;1.80;;;;;;;;;;5012216;28;20188;-86
2021/07/06 00:31:49;;;;;;;3.20;1.25;;;;;;;;;;5027980;28;20444;-85
2021/07/06 00:34:15;;;;;;;1.75;1.60;;;;;;;;;;5027405;28;20280;-85
2021/07/06 00:36:41;;;;;;;3.30;1.50;;;;;;;;;;5026957;28;20544;-85
2021/07/06 00:39:08;;;;;;;1.65;1.55;;;;;;;;;;5022603;28;20425;-85
2021/07/06 00:41:34;;;;;;;1.77;1.38;;;;;;;;;;5010578;28;20226;-84
2021/07/06 00:44:01;;;;;;;1.55;1.30;;;;;;;;;;5027123;28;20251;-86
2021/07/06 00:46:27;;;;;;;1.30;1.20;;;;;;;;;;5027448;28;20288;-84
2021/07/06 00:48:53;;;;;;;3.40;1.20;;;;;;;;;;5027895;28;20184;-89
2021/07/06 00:51:19;;;;;;;1.88;1.23;;;;;;;;;;5023096;28;20179;-82
2021/07/06 00:53:45;;;;;;;1.10;1.00;;;;;;;;;;5008130;28;20182;-83
2021/07/06 00:56:11;;;;;;;1.20;1.10;;;;;;;;;;5027340;28;20443;-84
2021/07/06 00:58:37;;;;;;;1.75;0.98;;;;;;;;;;5027890;28;20196;-84
2021/07/06 01:01:04;;;;;;;1.95;1.10;;;;;;;;;;5027390;28;20207;-84
2021/07/06 01:03:33;;;;;;;2.65;1.25;;;;;;;;;;5024509;28;20274;-82
2021/07/06 01:05:59;;;;;;;1.25;1.10;;;;;;;;;;5007785;28;20176;-82
2021/07/06 01:08:25;;;;;;;4.32;1.40;;;;;;;;;;5010889;28;20209;-86
2021/07/06 01:10:52;;;;;;;1.33;1.23;;;;;;;;;;5012034;28;20192;-85
2021/07/06 01:13:19;;;;;;;1.05;0.95;;;;;;;;;;5026912;28;20410;-84
2021/07/06 01:15:46;;;;;;;1.33;1.23;;;;;;;;;;5026526;28;20216;-84
2021/07/06 01:18:14;;;;;;;2.50;1.30;;;;;;;;;;5023044;28;20184;-85
2021/07/06 01:20:43;;;;;;;2.28;1.35;;;;;;;;;;5007733;28;20603;-84
2021/07/06 01:23:09;;;;;;;2.15;1.20;;;;;;;;;;5026739;28;20197;-85
2021/07/06 01:25:37;;;;;;;1.50;1.10;;;;;;;;;;5027479;28;20227;-84
2021/07/06 01:28:03;;;;;;;2.30;1.00;;;;;;;;;;5030755;28;20207;-83
2021/07/06 01:30:29;;;;;;;3.28;1.10;;;;;;;;;;5013173;28;20247;-84
2021/07/06 01:32:55;;;;;;;4.70;1.20;;;;;;;;;;5026051;28;20189;-83
2021/07/06 01:35:22;;;;;;;2.30;1.00;;;;;;;;;;5030438;28;20432;-84
2021/07/06 01:37:49;;;;;;;3.38;1.10;;;;;;;;;;5030597;28;20565;-83
2021/07/06 01:40:16;;;;;;;1.40;1.00;;;;;;;;;;5031160;28;20230;-84
2021/07/06 01:42:42;;;;;;;1.33;1.10;;;;;;;;;;5014542;28;20190;-84
2021/07/06 01:45:09;;;;;;;1.33;1.00;;;;;;;;;;5010765;28;20272;-84
2021/07/06 01:47:36;;;;;;;4.22;1.10;;;;;;;;;;5013075;28;20207;-84
2021/07/06 01:50:03;;;;;;;1.85;1.20;;;;;;;;;;5015464;28;20194;-85
2021/07/06 01:52:29;;;;;;;3.40;1.30;;;;;;;;;;5030298;28;20199;-85
2021/07/06 01:54:55;;;;;;;1.20;1.13;;;;;;;;;;5030095;28;20184;-84
2021/07/06 01:57:24;;;;;;;1.10;0.90;;;;;;;;;;5011544;28;20453;-85
2021/07/06 01:59:50;;;;;;;1.63;1.10;;;;;;;;;;5026336;28;20544;-84
2021/07/06 02:02:16;;;;;;;1.05;0.70;;;;;;;;;;5012612;28;20208;-83
2021/07/06 02:04:43;;;;;;;1.20;0.80;;;;;;;;;;5014593;28;20197;-83
2021/07/06 02:07:09;;;;;;;1.52;1.13;;;;;;;;;;5030212;28;20455;-83
2021/07/06 02:09:34;;;;;;;3.27;0.90;;;;;;;;;;5027965;28;20187;-83
2021/07/06 02:12:01;;;;;;;1.43;0.90;;;;;;;;;;5025794;28;20406;-84
2021/07/06 02:14:27;;;;;;;1.42;0.85;;;;;;;;;;5024686;28;20448;-83
2021/07/06 02:16:53;;;;;;;1.10;0.70;;;;;;;;;;5032798;28;20240;-83
2021/07/06 02:19:19;;;;;;;3.13;0.80;;;;;;;;;;5029433;28;20447;-84
2021/07/06 02:21:45;;;;;;;1.55;0.93;;;;;;;;;;5029649;28;20438;-85
2021/07/06 02:24:12;;;;;;;3.83;0.93;;;;;;;;;;5009797;28;20262;-82
2021/07/06 02:26:38;;;;;;;1.92;1.20;;;;;;;;;;5010929;28;20540;-84
2021/07/06 02:29:04;;;;;;;5.63;0.90;;;;;;;;;;5029817;28;20194;-82
2021/07/06 02:31:30;;;;;;;0.90;0.85;;;;;;;;;;5014820;28;20465;-82
2021/07/06 02:33:56;;;;;;;4.28;0.88;;;;;;;;;;5014131;28;20345;-81
2021/07/06 02:36:22;;;;;;;1.63;0.75;;;;;;;;;;5026035;28;20192;-81
2021/07/06 02:38:48;;;;;;;4.13;0.97;;;;;;;;;;5024057;28;20184;-82
2021/07/06 02:41:14;;;;;;;0.77;0.77;;;;;;;;;;5029856;28;20410;-82
2021/07/06 02:43:40;;;;;;;2.65;0.82;;;;;;;;;;5029784;28;20186;-82
2021/07/06 02:46:07;;;;;;;4.20;0.85;;;;;;;;;;5013878;28;20187;-82
2021/07/06 02:48:33;;;;;;;1.45;1.00;;;;;;;;;;5026998;28;20219;-83
2021/07/06 02:50:59;;;;;;;1.27;0.70;;;;;;;;;;5024324;28;20186;-83
2021/07/06 02:53:25;;;;;;;1.98;0.73;;;;;;;;;;5038186;28;20191;-84
2021/07/06 02:55:51;;;;;;;4.00;1.08;;;;;;;;;;5017271;28;20211;-85
2021/07/06 02:58:17;;;;;;;2.20;0.87;;;;;;;;;;5029212;28;20192;-83
2021/07/06 03:00:43;;;;;;;3.92;1.52;;;;;;;;;;5028058;28;20441;-83
2021/07/06 03:03:10;;;;;;;4.13;0.90;;;;;;;;;;5024958;28;20258;-82
2021/07/06 03:05:37;;;;;;;1.58;0.77;;;;;;;;;;5010509;28;20187;-83
2021/07/06 03:08:03;;;;;;;1.00;0.90;;;;;;;;;;5028813;28;20200;-84
2021/07/06 03:10:40;;;;;;;1.23;0.60;;;;;;;;;;5028641;28;20219;-83
2021/07/06 03:13:06;;;;;;;1.73;1.00;;;;;;;;;;5029051;28;20194;-84
2021/07/06 03:15:32;;;;;;;1.35;0.88;;;;;;;;;;5010868;28;20273;-82
2021/07/06 03:17:59;;;;;;;0.98;0.80;;;;;;;;;;5024412;28;20183;-81
2021/07/06 03:20:27;;;;;;;2.80;0.60;;;;;;;;;;5028126;28;20176;-82
2021/07/06 03:22:53;;;;;;;1.10;0.90;;;;;;;;;;5013575;28;20194;-83
2021/07/06 03:25:20;;;;;;;0.95;0.85;;;;;;;;;;5028571;28;20234;-84
2021/07/06 03:27:46;;;;;;;1.15;0.70;;;;;;;;;;5028289;28;20633;-86
2021/07/06 03:30:14;;;;;;;1.00;0.80;;;;;;;;;;5023256;28;20175;-82
2021/07/06 03:32:40;;;;;;;4.65;1.00;;;;;;;;;;5011178;28;20167;-83
2021/07/06 03:35:07;;;;;;;2.58;1.00;;;;;;;;;;5028354;28;20214;-83
2021/07/06 03:37:34;;;;;;;1.52;0.75;;;;;;;;;;5028318;28;20194;-82
2021/07/06 03:40:00;;;;;;;3.83;1.08;;;;;;;;;;5013603;28;20182;-82
2021/07/06 03:42:26;;;;;;;5.30;1.13;;;;;;;;;;5010478;28;20186;-85
2021/07/06 03:44:52;;;;;;;2.17;1.00;;;;;;;;;;5023385;28;20636;-83
2021/07/06 03:47:18;;;;;;;2.60;0.93;;;;;;;;;;5013162;28;20458;-84
2021/07/06 03:49:44;;;;;;;2.57;1.17;;;;;;;;;;5027995;28;20445;-85
2021/07/06 03:52:10;;;;;;;5.40;1.38;;;;;;;;;;5013793;28;20491;-85
2021/07/06 03:54:36;;;;;;;7.28;1.40;;;;;;;;;;5026600;28;20229;-82
2021/07/06 03:57:02;;;;;;;8.13;1.60;;;;;;;;;;5023705;28;20585;-83
2021/07/06 03:59:28;;;;;;;2.58;1.38;;;;;;;;;;5024587;28;20476;-85
2021/07/06 04:01:54;;;;;;;4.32;1.90;;;;;;;;;;5028109;28;20221;-82
2021/07/06 04:04:20;;;;;;;4.20;1.20;;;;;;;;;;5027852;28;20190;-83
2021/07/06 04:06:46;;;;;;;3.28;1.35;;;;;;;;;;5027657;28;20182;-83
2021/07/06 04:09:12;;;;;;;5.53;1.20;;;;;;;;;;5022824;28;20182;-82
2021/07/06 04:11:40;;;;;;;4.15;1.10;;;;;;;;;;5008634;28;20167;-84
2021/07/06 04:14:06;;;;;;;4.40;1.17;;;;;;;;;;5027955;28;20583;-85
2021/07/06 04:16:32;;;;;;;3.78;1.10;;;;;;;;;;5027852;28;20219;-86
2021/07/06 04:18:58;;;;;;;2.80;1.88;;;;;;;;;;5012608;28;20636;-84
2021/07/06 04:21:24;;;;;;;1.50;1.07;;;;;;;;;;5024335;28;20189;-85
2021/07/06 04:23:50;;;;;;;1.58;1.13;;;;;;;;;;5023894;28;20454;-88
2021/07/06 04:26:16;;;;;;;4.35;1.52;;;;;;;;;;5038146;28;20608;-84
2021/07/06 04:28:42;;;;;;;6.85;1.52;;;;;;;;;;5031482;28;20210;-84
2021/07/06 04:31:08;;;;;;;1.65;1.20;;;;;;;;;;5012297;28;20212;-83
2021/07/06 04:33:34;;;;;;;3.67;1.40;;;;;;;;;;5025560;28;20185;-84
2021/07/06 04:36:00;;;;;;;10.98;1.90;;;;;;;;;;5022881;28;20485;-83
2021/07/06 04:38:26;;;;;;;3.50;1.20;;;;;;;;;;5026643;28;20179;-84
2021/07/06 04:40:54;;;;;;;3.00;1.20;;;;;;;;;;5012133;28;20438;-83
2021/07/06 04:43:20;;;;;;;2.28;1.15;;;;;;;;;;5012027;28;20183;-83
2021/07/06 04:45:46;;;;;;;2.67;0.93;;;;;;;;;;5011689;28;20192;-83
2021/07/06 04:48:12;;;;;;;3.37;1.37;;;;;;;;;;5023273;28;20465;-83
2021/07/06 04:50:39;;;;;;;5.30;1.90;;;;;;;;;;5009572;28;20432;-86
2021/07/06 04:53:08;;;;;;;4.60;1.67;;;;;;;;;;5027318;28;20190;-85
2021/07/06 04:55:38;;;;;;;4.60;1.42;;;;;;;;;;5027342;28;20640;-84
2021/07/06 04:58:04;;;;;;;5.13;1.40;;;;;;;;;;5027131;28;20178;-83
2021/07/06 05:00:31;;;;;;;2.50;1.10;;;;;;;;;;5024900;28;20227;-82
2021/07/06 05:02:57;;;;;;;4.10;2.03;;;;;;;;;;5027285;28;20201;-89
2021/07/06 05:05:23;;;;;;;4.55;1.25;;;;;;;;;;5030869;28;20230;-85
2021/07/06 05:07:50;;;;;;;9.10;1.90;;;;;;;;;;5015931;28;20209;-85
2021/07/06 05:10:16;;;;;;;4.13;1.67;;;;;;;;;;5031014;28;20234;-84
2021/07/06 05:12:42;;;;;;;3.90;1.80;;;;;;;;;;5014910;28;20178;-84
2021/07/06 05:15:08;;;;;;;7.70;2.50;;;;;;;;;;5011719;28;20464;-84
2021/07/06 05:17:35;;;;;;;5.25;3.05;;;;;;;;;;5013975;28;20466;-82
2021/07/06 05:20:01;;;;;;;5.13;2.60;;;;;;;;;;5015722;28;20254;-88
2021/07/06 05:22:27;;;;;;;6.65;2.08;;;;;;;;;;5030868;28;20270;-86
2021/07/06 05:24:53;;;;;;;4.95;1.90;;;;;;;;;;5015642;28;20249;-82
2021/07/06 05:27:19;;;;;;;3.43;1.47;;;;;;;;;;5026905;28;20229;-84
2021/07/06 05:29:45;;;;;;;7.93;2.00;;;;;;;;;;5027577;28;20430;-86
2021/07/06 05:32:11;;;;;;;5.82;2.03;;;;;;;;;;5015763;28;20230;-84
2021/07/06 05:34:39;;;;;;;5.75;1.48;;;;;;;;;;5030789;28;20195;-83
2021/07/06 05:37:05;;;;;;;6.63;1.83;;;;;;;;;;5031285;28;20187;-84
2021/07/06 05:39:31;;;;;;;6.97;2.33;;;;;;;;;;5013440;28;20247;-86
2021/07/06 05:41:58;;;;;;;6.95;2.08;;;;;;;;;;5025800;28;20426;-83
2021/07/06 05:44:24;;;;;;;7.63;1.70;;;;;;;;;;5029904;28;20186;-86
2021/07/06 05:46:50;;;;;;;5.90;1.88;;;;;;;;;;5015873;28;20282;-85
2021/07/06 05:49:16;;;;;;;2.83;1.42;;;;;;;;;;5031124;28;20206;-84
2021/07/06 05:51:42;;;;;;;7.93;1.75;;;;;;;;;;5029070;28;20197;-83
2021/07/06 05:54:08;;;;;;;7.13;2.08;;;;;;;;;;5025546;28;20245;-83
2021/07/06 05:56:34;;;;;;;7.72;2.25;;;;;;;;;;5011515;28;20170;-84
2021/07/06 05:59:01;;;;;;;4.38;2.05;;;;;;;;;;5015265;28;20190;-82
2021/07/06 06:01:30;;;;;;;4.45;2.10;;;;;;;;;;5015191;28;20191;-82
2021/07/06 06:03:56;;;;;;;8.27;1.90;;;;;;;;;;5030731;28;20229;-81
2021/07/06 06:06:22;;;;;;;7.18;2.63;;;;;;;;;;5026287;28;20191;-85
2021/07/06 06:08:48;;;;;;;7.70;1.87;;;;;;;;;;5011183;28;20333;-86
2021/07/06 06:11:14;;;;;;;7.70;1.75;;;;;;;;;;5010701;28;20414;-81
2021/07/06 06:13:40;;;;;;;6.82;2.20;;;;;;;;;;5015050;28;20183;-83
2021/07/06 06:16:07;;;;;;;6.83;3.43;;;;;;;;;;5030067;28;20579;-84
2021/07/06 06:18:33;;;;;;;2.50;1.60;;;;;;;;;;5028321;28;20429;-82
2021/07/06 06:20:59;;;;;;;6.22;1.75;;;;;;;;;;5025557;28;20202;-85
2021/07/06 06:23:26;;;;;;;10.20;2.15;;;;;;;;;;5028621;28;20199;-83
2021/07/06 06:25:52;;;;;;;4.40;2.33;;;;;;;;;;5029574;28;20219;-80
2021/07/06 06:28:18;;;;;;;5.72;1.75;;;;;;;;;;5029762;28;20462;-83
2021/07/06 06:30:44;;;;;;;5.82;1.65;;;;;;;;;;5013996;28;20183;-81
2021/07/06 06:33:11;;;;;;;9.73;1.83;;;;;;;;;;5025102;28;20182;-82
2021/07/06 06:35:39;;;;;;;18.45;2.22;;;;;;;;;;5011111;28;20477;-81
2021/07/06 06:38:05;;;;;;;5.50;2.92;;;;;;;;;;5029104;28;20187;-82
2021/07/06 06:40:31;;;;;;;4.50;1.63;;;;;;;;;;5029067;28;20191;-82
2021/07/06 06:42:57;;;;;;;5.10;3.23;;;;;;;;;;5014763;28;20448;-84
2021/07/06 06:45:23;;;;;;;6.23;2.27;;;;;;;;;;5010779;28;20453;-86
2021/07/06 06:47:49;;;;;;;10.48;2.53;;;;;;;;;;5025240;28;20461;-82
2021/07/06 06:50:15;;;;;;;4.65;2.05;;;;;;;;;;5010538;28;20182;-85
2021/07/06 06:52:42;;;;;;;6.80;2.38;;;;;;;;;;5028855;28;20194;-83
2021/07/06 06:55:08;;;;;;;4.68;1.70;;;;;;;;;;5014462;28;20194;-83
2021/07/06 06:57:34;;;;;;;7.90;1.90;;;;;;;;;;5012118;28;20190;-80
2021/07/06 07:00:04;;;;;;;5.90;2.23;;;;;;;;;;5024627;28;20334;-81
2021/07/06 07:02:30;;;;;;;9.13;1.95;;;;;;;;;;5039393;28;20484;-82
2021/07/06 07:04:56;;;;;;;5.38;1.30;;;;;;;;;;5031820;28;20191;-83
2021/07/06 07:07:23;;;;;;;9.45;1.92;;;;;;;;;;5028631;28;20230;-87
2021/07/06 07:09:49;;;;;;;7.50;2.00;;;;;;;;;;5028942;28;20186;-81
2021/07/06 07:12:16;;;;;;;7.80;1.98;;;;;;;;;;5024099;28;20246;-81
2021/07/06 07:14:42;;;;;;;5.07;1.88;;;;;;;;;;5009385;28;20177;-83
2021/07/06 07:17:09;;;;;;;4.00;1.88;;;;;;;;;;5014268;28;20226;-86
2021/07/06 07:19:35;;;;;;;5.80;2.30;;;;;;;;;;5029167;28;20183;-87
2021/07/06 07:22:02;;;;;;;5.53;2.65;;;;;;;;;;5028271;28;20232;-83
2021/07/06 07:24:28;;;;;;;8.07;2.17;;;;;;;;;;5024641;28;20372;-82
2021/07/06 07:26:54;;;;;;;12.77;2.85;;;;;;;;;;5009424;28;20203;-84
2021/07/06 07:29:20;;;;;;;6.03;2.63;;;;;;;;;;5012638;28;20179;-83
2021/07/06 07:31:46;;;;;;;9.23;2.45;;;;;;;;;;5028321;28;20179;-81
2021/07/06 07:34:12;;;;;;;5.72;1.70;;;;;;;;;;5028806;28;20210;-87
2021/07/06 07:36:41;;;;;;;3.10;1.47;;;;;;;;;;5026761;28;20187;-82
2021/07/06 07:39:06;;;;;;;7.10;1.88;;;;;;;;;;5023499;28;20422;-84
2021/07/06 07:41:32;;;;;;;4.53;2.10;;;;;;;;;;5010348;28;20298;-81
2021/07/06 07:43:58;;;;;;;8.38;2.63;;;;;;;;;;5013313;28;20423;-83
2021/07/06 07:46:25;;;;;;;4.03;1.80;;;;;;;;;;5028874;28;20644;-83
2021/07/06 07:48:51;;;;;;;5.55;1.73;;;;;;;;;;5028331;28;20458;-82
2021/07/06 07:51:18;;;;;;;6.18;1.52;;;;;;;;;;5023248;28;20218;-82
2021/07/06 07:53:44;;;;;;;6.35;2.00;;;;;;;;;;5009964;28;20175;-82
2021/07/06 07:56:11;;;;;;;7.43;1.90;;;;;;;;;;5027987;28;20672;-81
2021/07/06 07:58:37;;;;;;;5.25;1.80;;;;;;;;;;5028143;28;20192;-83
2021/07/06 08:01:03;;;;;;;7.47;1.60;;;;;;;;;;5012780;28;20623;-81
2021/07/06 08:03:29;;;;;;;6.85;2.55;;;;;;;;;;5025656;28;20434;-83
2021/07/06 08:05:57;;;;;;;10.10;2.53;;;;;;;;;;5023409;28;20207;-84
2021/07/06 08:08:23;;;;;;;9.40;2.33;;;;;;;;;;5027290;28;20505;-86
2021/07/06 08:10:52;;;;;;;5.97;2.00;;;;;;;;;;5028313;28;20234;-83
2021/07/06 08:13:19;;;;;;;5.80;2.03;;;;;;;;;;5027384;28;20430;-85
2021/07/06 08:15:45;;;;;;;11.00;1.90;;;;;;;;;;5011495;28;20581;-80
2021/07/06 08:18:11;;;;;;;4.88;2.03;;;;;;;;;;5008179;28;20224;-82
2021/07/06 08:20:37;;;;;;;5.97;2.05;;;;;;;;;;5009175;28;20188;-82
2021/07/06 08:23:03;;;;;;;3.85;1.63;;;;;;;;;;5012010;28;20190;-81
2021/07/06 08:25:29;;;;;;;4.17;1.70;;;;;;;;;;5012603;28;20194;-81
2021/07/06 08:27:55;;;;;;;8.60;1.97;;;;;;;;;;5012526;28;20524;-84
2021/07/06 08:30:21;;;;;;;6.13;1.83;;;;;;;;;;5023919;28;20934;-83
2021/07/06 08:32:47;;;;;;;5.60;1.90;;;;;;;;;;5023736;28;20449;-82
2021/07/06 08:35:14;;;;;;;9.32;2.35;;;;;;;;;;5011895;28;20191;-84
2021/07/06 08:37:40;;;;;;;3.20;1.65;;;;;;;;;;5012388;28;20187;-84
2021/07/06 08:40:07;;;;;;;5.65;2.47;;;;;;;;;;5012557;28;20729;-84
2021/07/06 08:42:33;;;;;;;7.22;2.40;;;;;;;;;;5025081;28;20181;-82
2021/07/06 08:45:00;;;;;;;2.15;1.52;;;;;;;;;;5008287;28;20179;-82
2021/07/06 08:47:26;;;;;;;7.35;2.17;;;;;;;;;;5026442;28;20207;-81
2021/07/06 08:49:53;;;;;;;6.43;2.00;;;;;;;;;;5012197;28;20180;-83
2021/07/06 08:52:20;;;;;;;3.58;1.85;;;;;;;;;;5027479;28;20170;-82
2021/07/06 08:54:46;;;;;;;2.90;2.35;;;;;;;;;;5026879;28;20185;-84
2021/07/06 08:57:12;;;;;;;7.32;1.85;;;;;;;;;;5022892;28;20217;-87
2021/07/06 08:59:39;;;;;;;8.07;2.10;;;;;;;;;;5009842;28;20210;-83
2021/07/06 09:02:07;;;;;;;7.20;2.08;;;;;;;;;;5027164;28;20191;-80
2021/07/06 09:04:46;;;;;;;5.30;2.13;;;;;;;;;;5027269;28;20191;-83
2021/07/06 09:07:12;;;;;;;3.88;1.63;;;;;;;;;;5012075;28;20218;-84
2021/07/06 09:09:38;;;;;;;3.58;1.80;;;;;;;;;;5025298;28;20190;-84
2021/07/06 09:12:05;;;;;;;4.97;1.60;;;;;;;;;;5007114;28;20180;-83
2021/07/06 09:14:32;;;;;;;4.15;2.05;;;;;;;;;;5009650;28;20171;-84
2021/07/06 09:17:14;;;;;;;6.20;2.30;;;;;;;;;;5011630;28;20223;-82
2021/07/06 09:19:42;;;;;;;5.50;2.00;;;;;;;;;;5012215;28;20199;-82
2021/07/06 09:22:15;;;;;;;6.63;2.17;;;;;;;;;;5011776;28;20328;-86
2021/07/06 09:24:42;;;;;;;3.95;1.88;;;;;;;;;;5025875;28;20207;-85
2021/07/06 09:27:31;;;;;;;8.50;2.35;;;;;;;;;;5007244;28;20517;-83
2021/07/06 09:30:18;;;;;;;6.35;2.03;;;;;;;;;;5019541;28;20182;-81
2021/07/06 09:32:48;;;;;;;5.50;1.55;;;;;;;;;;5023266;28;20242;-84
2021/07/06 09:35:17;;;;;;;3.05;1.65;;;;;;;;;;5027579;28;20333;-82
2021/07/06 09:37:54;;;;;;;3.20;1.70;;;;;;;;;;5027078;28;20193;-80
2021/07/06 09:40:23;;;;;;;5.18;1.40;;;;;;;;;;5027148;28;20196;-82
2021/07/06 09:43:08;;;;;;;5.10;1.60;;;;;;;;;;5011644;28;20199;-84
2021/07/06 09:45:34;;;;;;;4.57;2.50;;;;;;;;;;5024621;28;20196;-83
2021/07/06 09:48:08;;;;;;;8.40;1.50;;;;;;;;;;5024802;28;20205;-82
2021/07/06 09:50:34;;;;;;;3.97;1.83;;;;;;;;;;5012368;28;20391;-81
2021/07/06 09:53:03;;;;;;;3.03;1.65;;;;;;;;;;5030004;28;20200;-80
2021/07/06 09:55:33;;;;;;;4.07;1.63;;;;;;;;;;5015670;28;20177;-83
2021/07/06 09:58:03;;;;;;;3.67;1.63;;;;;;;;;;5030513;28;20242;-87
2021/07/06 10:00:31;;;;;;;2.70;1.48;;;;;;;;;;5012525;28;20184;-83
2021/07/06 10:03:01;;;;;;;3.08;1.10;;;;;;;;;;5025372;28;20616;-86
2021/07/06 10:05:28;;;;;;;4.10;1.63;;;;;;;;;;5029453;28;20175;-84
2021/07/06 10:07:54;;;;;;;2.95;1.50;;;;;;;;;;5030175;28;20214;-81
2021/07/06 10:10:21;;;;;;;11.82;3.50;;;;;;;;;;5014939;28;20211;-83
2021/07/06 10:12:48;;;;;;;2.75;1.13;;;;;;;;;;5029335;28;20192;-81
2021/07/06 10:15:15;;;;;;;3.00;1.60;;;;;;;;;;5024935;28;20208;-84
2021/07/06 10:17:41;;;;;;;2.75;1.58;;;;;;;;;;5012225;28;20256;-82
2021/07/06 10:20:09;;;;;;;3.67;1.73;;;;;;;;;;5030184;28;20270;-87
2021/07/06 10:22:35;;;;;;;2.08;1.55;;;;;;;;;;5014412;28;20185;-88
2021/07/06 10:25:03;;;;;;;5.57;1.73;;;;;;;;;;5029981;28;20183;-87
2021/07/06 10:27:32;;;;;;;4.20;1.52;;;;;;;;;;5027729;28;20236;-90
2021/07/06 10:30:15;;;;;;;4.57;1.40;;;;;;;;;;5025550;28;20190;-87
2021/07/06 10:32:52;;;;;;;6.35;1.58;;;;;;;;;;5011487;28;20168;-85
2021/07/06 10:35:42;;;;;;;4.57;1.75;;;;;;;;;;5014921;28;20238;-87
2021/07/06 10:38:27;;;;;;;3.35;1.35;;;;;;;;;;5029989;28;20198;-88
2021/07/06 10:40:53;;;;;;;2.15;1.10;;;;;;;;;;5014943;28;20189;-85
2021/07/06 10:43:32;;;;;;;3.50;1.55;;;;;;;;;;5029727;28;20185;-88
2021/07/06 10:46:32;;;;;;;1.70;1.20;;;;;;;;;;5029204;28;20214;-89
2021/07/06 10:49:14;;;;;;;5.72;1.75;;;;;;;;;;5029811;28;20208;-85
2021/07/06 10:51:40;;;;;;;2.90;1.20;;;;;;;;;;5028054;28;20197;-86
2021/07/06 10:54:11;;;;;;;7.77;1.87;;;;;;;;;;5009591;28;20186;-86
2021/07/06 10:56:43;;;;;;;4.77;1.97;;;;;;;;;;5011194;28;20479;-84
2021/07/06 10:59:21;;;;;;;7.23;1.20;;;;;;;;;;5013126;28;20475;-85
2021/07/06 11:01:54;;;;;;;2.50;1.23;;;;;;;;;;5014346;28;20433;-87
2021/07/06 11:04:51;;;;;;;3.80;1.23;;;;;;;;;;5029256;28;20499;-85
2021/07/06 11:07:17;;;;;;;5.60;1.27;;;;;;;;;;5029550;28;20601;-87
2021/07/06 11:09:49;;;;;;;3.30;1.40;;;;;;;;;;5027836;28;20441;-84
2021/07/06 11:12:21;;;;;;;2.53;1.20;;;;;;;;;;5024449;28;20439;-86
2021/07/06 11:14:50;;;;;;;3.27;1.50;;;;;;;;;;5020535;28;20958;-83
2021/07/06 11:17:32;;;;;;;1.77;1.50;;;;;;;;;;5029285;28;20466;-87
2021/07/06 11:19:59;;;;;;;2.00;1.30;;;;;;;;;;5014264;28;21249;-89
2021/07/06 11:22:39;;;;;;;6.00;1.10;;;;;;;;;;5029633;28;20458;-87
2021/07/06 11:25:20;;;;;;;3.90;1.70;;;;;;;;;;5028843;28;20452;-89
2021/07/06 11:27:58;;;;;;;4.50;1.20;;;;;;;;;;5028393;28;20980;-91
2021/07/06 11:30:29;;;;;;;1.37;1.00;;;;;;;;;;5024867;28;20430;-88
2021/07/06 11:33:12;;;;;;;3.00;1.20;;;;;;;;;;5024508;28;20424;-91
2021/07/06 11:35:46;;;;;;;1.97;0.93;;;;;;;;;;5009833;28;20426;-83
2021/07/06 11:38:14;;;;;;;1.67;1.43;;;;;;;;;;5028667;28;20538;-83
2021/07/06 11:40:41;;;;;;;4.20;1.73;;;;;;;;;;5029026;28;20427;-86
2021/07/06 11:43:08;;;;;;;2.90;1.30;;;;;;;;;;5028003;28;21015;-84
2021/07/06 11:45:35;;;;;;;4.60;1.23;;;;;;;;;;5011643;28;20495;-90
2021/07/06 11:48:05;;;;;;;4.33;2.30;;;;;;;;;;5024205;28;20458;-86
2021/07/06 11:50:31;;;;;;;3.23;1.27;;;;;;;;;;5025333;28;20429;-86
2021/07/06 11:52:58;;;;;;;2.73;1.30;;;;;;;;;;5027850;28;20797;-82
2021/07/06 11:55:24;;;;;;;2.63;1.30;;;;;;;;;;5028600;28;20443;-87
2021/07/06 11:57:54;;;;;;;2.87;1.13;;;;;;;;;;5028446;28;20776;-86
2021/07/06 12:00:21;;;;;;;2.23;1.00;;;;;;;;;;5024348;28;20444;-85
2021/07/06 12:02:47;;;;;;;1.83;1.30;;;;;;;;;;5025032;28;20431;-86
2021/07/06 12:05:14;;;;;;;4.37;1.33;;;;;;;;;;5027651;28;20467;-82
2021/07/06 12:07:40;;;;;;;1.87;1.13;;;;;;;;;;5028271;28;20443;-85
2021/07/06 12:10:09;;;;;;;4.27;1.33;;;;;;;;;;5027962;28;20424;-84
2021/07/06 12:12:35;;;;;;;3.30;1.20;;;;;;;;;;5025724;28;20432;-83
2021/07/06 12:15:01;;;;;;;4.53;1.27;;;;;;;;;;5022966;28;20438;-84
2021/07/06 12:17:31;;;;;;;3.50;1.40;;;;;;;;;;5026967;28;21037;-83
2021/07/06 12:19:58;;;;;;;2.10;1.30;;;;;;;;;;5013436;28;20438;-82
2021/07/06 12:22:25;;;;;;;2.23;1.10;;;;;;;;;;5013058;28;20431;-83
2021/07/06 12:24:52;;;;;;;3.20;1.20;;;;;;;;;;5027465;28;20450;-80
2021/07/06 12:27:18;;;;;;;2.60;1.10;;;;;;;;;;5023260;28;20446;-84
2021/07/06 12:29:46;;;;;;;2.03;1.00;;;;;;;;;;5009419;28;20418;-81
2021/07/06 12:32:14;;;;;;;3.53;1.30;;;;;;;;;;5012933;28;20406;-86
2021/07/06 12:34:43;;;;;;;3.53;1.33;;;;;;;;;;5012299;28;20452;-87
2021/07/06 12:37:12;;;;;;;4.33;1.10;;;;;;;;;;5027495;28;20472;-83
2021/07/06 12:39:39;;;;;;;3.50;1.40;;;;;;;;;;5025584;28;20461;-85
2021/07/06 12:42:05;;;;;;;2.80;1.30;;;;;;;;;;5022918;28;20451;-86
2021/07/06 12:44:40;;;;;;;3.43;1.20;;;;;;;;;;5011032;28;20411;-82
2021/07/06 12:47:22;;;;;;;3.90;1.80;;;;;;;;;;5012216;28;20467;-83
2021/07/06 12:49:51;;;;;;;4.50;1.30;;;;;;;;;;5027839;28;20649;-89
2021/07/06 12:52:17;;;;;;;6.10;1.77;;;;;;;;;;5027846;28;20409;-87
2021/07/06 12:54:44;;;;;;;2.37;1.43;;;;;;;;;;5026098;28;20468;-89
2021/07/06 12:57:24;;;;;;;4.70;1.60;;;;;;;;;;5022707;28;21487;-86
2021/07/06 12:59:50;;;;;;;2.77;1.10;;;;;;;;;;5019147;28;20402;-85
2021/07/06 13:02:21;;;;;;;2.07;1.13;;;;;;;;;;5027700;28;20433;-83
2021/07/06 13:04:56;;;;;;;3.63;1.10;;;;;;;;;;5027256;28;20752;-83
2021/07/06 13:07:23;;;;;;;3.63;1.60;;;;;;;;;;5027399;28;20468;-85
2021/07/06 13:10:07;;;;;;;4.63;1.00;;;;;;;;;;5010754;28;20444;-86
2021/07/06 13:12:33;;;;;;;4.10;1.17;;;;;;;;;;5010359;28;20922;-86
2021/07/06 13:14:59;;;;;;;2.27;0.90;;;;;;;;;;5022941;28;20419;-87
2021/07/06 13:17:27;;;;;;;2.80;1.27;;;;;;;;;;5026647;28;20462;-88
2021/07/06 13:20:10;;;;;;;1.97;1.33;;;;;;;;;;5027432;28;20438;-86
2021/07/06 13:22:39;;;;;;;3.33;0.90;;;;;;;;;;5029476;28;20480;-88
2021/07/06 13:25:05;;;;;;;1.60;1.00;;;;;;;;;;5030664;28;20503;-85
2021/07/06 13:27:32;;;;;;;3.17;1.10;;;;;;;;;;5013320;28;20495;-83
2021/07/06 13:29:59;;;;;;;3.60;1.20;;;;;;;;;;5026873;28;20424;-89
2021/07/06 13:32:25;;;;;;;1.20;1.10;;;;;;;;;;5015898;28;20435;-84
2021/07/06 13:34:51;;;;;;;3.13;0.80;;;;;;;;;;5015777;28;20449;-87
2021/07/06 13:37:17;;;;;;;4.03;1.47;;;;;;;;;;5015925;28;20439;-85
2021/07/06 13:39:43;;;;;;;2.70;1.40;;;;;;;;;;5029180;28;20444;-84
2021/07/06 13:42:09;;;;;;;4.47;1.17;;;;;;;;;;5026559;28;20440;-84
2021/07/06 13:44:37;;;;;;;2.00;1.07;;;;;;;;;;5012613;28;20405;-85
2021/07/06 13:47:04;;;;;;;3.63;1.33;;;;;;;;;;5031049;28;20419;-88
2021/07/06 13:49:31;;;;;;;3.70;1.13;;;;;;;;;;5030926;28;20452;-85
2021/07/06 13:51:58;;;;;;;3.23;1.10;;;;;;;;;;5015795;28;20411;-84
2021/07/06 13:54:27;;;;;;;1.77;0.90;;;;;;;;;;5025992;28;20448;-87
2021/07/06 13:56:53;;;;;;;1.93;1.10;;;;;;;;;;5011211;28;20428;-83
2021/07/06 13:59:19;;;;;;;3.10;1.10;;;;;;;;;;5016214;28;20420;-90
2021/07/06 14:01:45;;;;;;;2.40;1.20;;;;;;;;;;5030733;28;20470;-86
2021/07/06 14:04:11;;;;;;;3.13;1.33;;;;;;;;;;5030405;28;20536;-84
2021/07/06 14:06:37;;;;;;;5.73;1.43;;;;;;;;;;5028598;28;20510;-83
2021/07/06 14:09:03;;;;;;;3.13;1.37;;;;;;;;;;5025297;28;20437;-87
2021/07/06 14:11:29;;;;;;;3.50;1.33;;;;;;;;;;5027438;28;20394;-80
2021/07/06 14:13:55;;;;;;;3.50;1.07;;;;;;;;;;5030451;28;20462;-87
2021/07/06 14:16:21;;;;;;;3.30;1.20;;;;;;;;;;5029794;28;20470;-87
2021/07/06 14:18:47;;;;;;;2.87;1.07;;;;;;;;;;5014507;28;20427;-87
2021/07/06 14:21:13;;;;;;;2.77;1.00;;;;;;;;;;5010503;28;20457;-83
2021/07/06 14:23:39;;;;;;;4.60;1.40;;;;;;;;;;5012417;28;20411;-86
2021/07/06 14:26:05;;;;;;;2.70;0.80;;;;;;;;;;5029760;28;20484;-86
2021/07/06 14:28:32;;;;;;;2.80;1.33;;;;;;;;;;5030234;28;20490;-86
2021/07/06 14:30:58;;;;;;;3.33;1.70;;;;;;;;;;5015017;28;20404;-85
2021/07/06 14:33:24;;;;;;;3.87;1.30;;;;;;;;;;5009495;28;20433;-83
2021/07/06 14:35:50;;;;;;;3.60;1.13;;;;;;;;;;5025560;28;20408;-86
2021/07/06 14:38:17;;;;;;;2.90;1.20;;;;;;;;;;5029539;28;20422;-89
2021/07/06 14:40:43;;;;;;;4.53;1.23;;;;;;;;;;5014710;28;20417;-84
2021/07/06 14:43:09;;;;;;;1.77;1.30;;;;;;;;;;5014921;28;20438;-83
2021/07/06 14:45:35;;;;;;;3.37;1.40;;;;;;;;;;5011815;28;20408;-81